Time;durP1;ratioP1;P1;durP2;ratioP2;P2;SDS_P1;SDS_P2;PMS_P1;PMS_P2;Temp;Humidity;BMP_temperature;BMP_pressure;BME280_temperature;BME280_humidity;BME280_pressure;Samples;Min_cycle;Max_cycle;Signal;HPM_P1;HPM_P2
2021/04/22 00:01:18;;;;;;;12.85;8.27;;;11.60;98.50;;;;;;5074806;28;20245;-72
2021/04/22 00:03:44;;;;;;;11.32;8.15;;;11.50;98.60;;;;;;5074695;28;20207;-76
2021/04/22 00:06:11;;;;;;;11.23;8.98;;;11.50;98.80;;;;;;5074687;28;20234;-76
2021/04/22 00:08:37;;;;;;;11.35;7.93;;;11.40;99.00;;;;;;5074126;28;20285;-75
2021/04/22 00:11:04;;;;;;;11.40;7.88;;;11.40;99.20;;;;;;5074495;28;20226;-76
2021/04/22 00:13:31;;;;;;;12.73;8.43;;;11.40;99.40;;;;;;5074399;28;20305;-76
2021/04/22 00:15:59;;;;;;;11.82;8.25;;;11.40;99.40;;;;;;5073831;28;20234;-76
2021/04/22 00:18:25;;;;;;;12.98;9.18;;;11.40;99.40;;;;;;5074802;28;20260;-77
2021/04/22 00:20:52;;;;;;;12.93;8.93;;;11.40;99.60;;;;;;5073761;28;20295;-77
2021/04/22 00:23:18;;;;;;;16.75;8.88;;;11.40;99.80;;;;;;5073802;28;20241;-76
2021/04/22 00:25:45;;;;;;;12.90;9.02;;;11.50;99.90;;;;;;5073497;28;20298;-75
2021/04/22 00:28:14;;;;;;;10.20;8.07;;;11.50;99.90;;;;;;5073902;28;20352;-75
2021/04/22 00:30:41;;;;;;;10.90;8.45;;;11.60;99.90;;;;;;5073530;28;20252;-75
2021/04/22 00:33:10;;;;;;;13.18;9.00;;;11.60;99.90;;;;;;5073584;28;20228;-72
2021/04/22 00:35:37;;;;;;;12.60;8.32;;;11.60;99.70;;;;;;5073391;28;20234;-72
2021/04/22 00:38:04;;;;;;;11.45;8.82;;;11.70;99.70;;;;;;5073499;28;20286;-72
2021/04/22 00:40:31;;;;;;;13.48;9.38;;;11.80;99.90;;;;;;5073496;28;20285;-73
2021/04/22 00:43:00;;;;;;;12.63;8.93;;;11.80;99.80;;;;;;5073488;28;20222;-72
2021/04/22 00:45:27;;;;;;;16.10;9.05;;;11.80;99.70;;;;;;5073663;28;20297;-72
2021/04/22 00:47:54;;;;;;;14.13;8.80;;;11.80;99.60;;;;;;5074039;28;20656;-71
2021/04/22 00:50:22;;;;;;;12.82;9.30;;;11.90;99.20;;;;;;5073755;28;20309;-72
2021/04/22 00:52:48;;;;;;;13.52;9.02;;;12.00;99.10;;;;;;5073411;28;20226;-71
2021/04/22 00:55:15;;;;;;;13.43;9.00;;;12.10;99.00;;;;;;5073389;28;20294;-71
2021/04/22 00:57:41;;;;;;;12.23;9.40;;;12.20;98.50;;;;;;5073211;28;20219;-77
2021/04/22 01:00:10;;;;;;;12.52;9.02;;;12.30;98.20;;;;;;5073744;28;20289;-77
2021/04/22 01:02:38;;;;;;;11.30;9.35;;;12.40;98.10;;;;;;5073596;28;20275;-77
2021/04/22 01:05:07;;;;;;;15.10;9.95;;;12.50;99.10;;;;;;5073468;28;20213;-76
2021/04/22 01:07:36;;;;;;;14.55;10.73;;;12.60;99.90;;;;;;5073353;28;20207;-76
2021/04/22 01:10:03;;;;;;;15.15;10.73;;;12.70;99.90;;;;;;5072980;28;20728;-75
2021/04/22 01:12:29;;;;;;;17.60;11.95;;;12.70;99.90;;;;;;5072894;28;20265;-75
2021/04/22 01:14:55;;;;;;;15.60;10.45;;;12.60;99.90;;;;;;5073609;28;20293;-75
2021/04/22 01:17:22;;;;;;;14.75;10.90;;;12.60;99.90;;;;;;5075424;28;20297;-75
2021/04/22 01:19:49;;;;;;;16.63;11.30;;;12.40;99.90;;;;;;5074853;28;20572;-74
2021/04/22 01:22:16;;;;;;;15.00;10.55;;;12.30;99.90;;;;;;5076170;28;20613;-73
2021/04/22 01:24:44;;;;;;;17.65;11.27;;;12.20;99.90;;;;;;5078905;28;20195;-72
2021/04/22 01:27:11;;;;;;;17.80;11.43;;;12.00;99.90;;;;;;5078826;28;20327;-74
2021/04/22 01:29:38;;;;;;;17.77;11.90;;;11.90;99.90;;;;;;5082843;28;20277;-73
2021/04/22 01:32:05;;;;;;;18.23;11.48;;;11.90;99.90;;;;;;5078968;28;20700;-74
2021/04/22 01:34:32;;;;;;;19.80;13.18;;;11.80;99.90;;;;;;5074143;28;20606;-73
2021/04/22 01:36:58;;;;;;;17.40;11.60;;;11.80;99.90;;;;;;5074108;28;20245;-73
2021/04/22 01:39:26;;;;;;;19.55;13.00;;;11.80;99.90;;;;;;5074186;28;20243;-73
2021/04/22 01:41:52;;;;;;;17.38;12.15;;;11.60;99.90;;;;;;5074137;28;20229;-72
2021/04/22 01:44:35;;;;;;;17.10;12.02;;;11.60;99.90;;;;;;5074773;28;20289;-72
2021/04/22 01:47:01;;;;;;;19.40;11.55;;;11.60;99.90;;;;;;5073844;28;20289;-73
2021/04/22 01:49:28;;;;;;;20.02;13.32;;;11.60;99.90;;;;;;5074817;28;20293;-73
2021/04/22 01:51:54;;;;;;;19.50;13.18;;;11.60;99.90;;;;;;5075018;28;20265;-73
2021/04/22 01:54:20;;;;;;;19.85;12.35;;;11.60;99.90;;;;;;5075330;28;20207;-73
2021/04/22 01:56:48;;;;;;;19.33;13.82;;;11.60;99.90;;;;;;5074314;28;20340;-73
2021/04/22 01:59:14;;;;;;;18.80;12.15;;;11.60;99.90;;;;;;5075096;28;20199;-73
2021/04/22 02:01:40;;;;;;;18.55;12.32;;;11.50;99.90;;;;;;5073893;28;20313;-73
2021/04/22 02:04:07;;;;;;;19.35;12.43;;;11.50;99.90;;;;;;5073744;28;20293;-72
2021/04/22 02:06:33;;;;;;;20.30;13.07;;;11.60;99.90;;;;;;5073743;28;20293;-73
2021/04/22 02:09:00;;;;;;;19.83;12.60;;;11.50;99.90;;;;;;5074689;28;20331;-72
2021/04/22 02:11:26;;;;;;;23.45;13.48;;;11.20;99.90;;;;;;5074063;28;20225;-73
2021/04/22 02:13:53;;;;;;;18.70;12.90;;;11.10;99.90;;;;;;5075066;28;20548;-74
2021/04/22 02:16:19;;;;;;;20.67;13.45;;;11.10;99.90;;;;;;5073710;28;20209;-73
2021/04/22 02:18:46;;;;;;;19.90;12.38;;;11.00;99.90;;;;;;5074227;28;20207;-73
2021/04/22 02:21:12;;;;;;;22.05;14.25;;;11.20;99.90;;;;;;5074004;28;20238;-72
2021/04/22 02:23:38;;;;;;;20.23;13.35;;;11.20;99.90;;;;;;5074355;28;20289;-72
2021/04/22 02:26:05;;;;;;;17.77;13.07;;;11.30;99.90;;;;;;5073943;28;20215;-72
2021/04/22 02:28:31;;;;;;;21.45;14.20;;;11.30;99.90;;;;;;5074725;28;20297;-73
2021/04/22 02:30:58;;;;;;;20.80;13.88;;;11.30;99.90;;;;;;5076108;28;20245;-72
2021/04/22 02:33:24;;;;;;;21.60;13.80;;;11.40;99.90;;;;;;5078269;28;20226;-72
2021/04/22 02:35:51;;;;;;;22.00;13.90;;;11.40;99.90;;;;;;5077958;28;20297;-73
2021/04/22 02:38:18;;;;;;;25.27;15.07;;;11.50;99.90;;;;;;5078455;28;20237;-72
2021/04/22 02:40:46;;;;;;;26.92;14.70;;;11.40;99.90;;;;;;5078318;28;20286;-74
2021/04/22 02:43:14;;;;;;;24.23;15.38;;;11.30;99.90;;;;;;5078081;28;20222;-72
2021/04/22 02:45:43;;;;;;;23.45;15.77;;;11.30;99.90;;;;;;5077706;28;20263;-73
2021/04/22 02:48:11;;;;;;;28.10;16.70;;;11.20;99.90;;;;;;5078188;28;20203;-73
2021/04/22 02:50:41;;;;;;;23.92;15.32;;;11.20;99.90;;;;;;5078154;28;20219;-73
2021/04/22 02:53:08;;;;;;;25.80;16.90;;;11.30;99.90;;;;;;5078257;28;20310;-72
2021/04/22 02:55:35;;;;;;;27.33;16.80;;;11.20;99.90;;;;;;5077964;28;20593;-73
2021/04/22 02:58:01;;;;;;;27.05;15.55;;;11.30;99.90;;;;;;5077273;28;20246;-72
2021/04/22 03:00:28;;;;;;;27.50;18.15;;;11.40;99.90;;;;;;5077421;28;20209;-73
2021/04/22 03:02:54;;;;;;;29.05;17.02;;;11.40;99.90;;;;;;5077278;28;20313;-72
2021/04/22 03:05:22;;;;;;;24.13;16.17;;;11.50;99.90;;;;;;5077069;28;20199;-72
2021/04/22 03:07:48;;;;;;;28.65;17.80;;;11.50;99.90;;;;;;5077234;28;20229;-73
2021/04/22 03:10:17;;;;;;;28.27;18.20;;;11.50;99.90;;;;;;5076705;28;20779;-73
2021/04/22 03:12:43;;;;;;;26.73;17.10;;;11.50;99.90;;;;;;5076993;28;20219;-73
2021/04/22 03:15:11;;;;;;;29.25;17.85;;;11.50;99.90;;;;;;5078385;28;20604;-73
2021/04/22 03:17:37;;;;;;;29.25;17.77;;;11.40;99.90;;;;;;5077667;28;20255;-73
2021/04/22 03:20:05;;;;;;;30.20;17.48;;;11.40;99.90;;;;;;5077383;28;20294;-73
2021/04/22 03:22:33;;;;;;;30.63;18.77;;;11.40;99.90;;;;;;5076632;28;20254;-73
2021/04/22 03:25:00;;;;;;;30.50;18.70;;;11.40;99.90;;;;;;5076274;28;20613;-73
2021/04/22 03:27:27;;;;;;;33.42;18.05;;;11.50;99.90;;;;;;5076438;28;20230;-73
2021/04/22 03:29:54;;;;;;;28.17;17.35;;;11.60;99.90;;;;;;5076887;28;20210;-72
2021/04/22 03:32:20;;;;;;;26.77;15.88;;;11.60;99.90;;;;;;5076436;28;20223;-73
2021/04/22 03:34:46;;;;;;;27.40;17.75;;;11.60;99.90;;;;;;5076994;28;20202;-73
2021/04/22 03:37:13;;;;;;;32.58;17.80;;;11.60;99.90;;;;;;5076718;28;20232;-73
2021/04/22 03:39:40;;;;;;;26.40;15.80;;;11.30;99.90;;;;;;5076808;28;20202;-72
2021/04/22 03:42:07;;;;;;;26.20;16.05;;;11.10;99.90;;;;;;5076850;28;20765;-73
2021/04/22 03:44:34;;;;;;;26.80;16.05;;;11.10;99.90;;;;;;5077126;28;20199;-72
2021/04/22 03:47:00;;;;;;;24.67;15.38;;;11.10;99.90;;;;;;5077144;28;20205;-73
2021/04/22 03:49:26;;;;;;;25.15;15.98;;;11.20;99.90;;;;;;5077207;28;20289;-72
2021/04/22 03:51:53;;;;;;;27.80;16.15;;;11.10;99.90;;;;;;5076747;28;20237;-72
2021/04/22 03:54:19;;;;;;;22.42;14.48;;;10.80;99.90;;;;;;5076731;28;20234;-73
2021/04/22 03:56:46;;;;;;;27.73;16.23;;;10.70;99.90;;;;;;5076418;28;20221;-73
2021/04/22 03:59:13;;;;;;;24.02;15.40;;;10.50;99.90;;;;;;5077681;28;20302;-73
2021/04/22 04:01:39;;;;;;;22.90;15.27;;;10.50;99.90;;;;;;5077112;28;20305;-73
2021/04/22 04:04:06;;;;;;;27.45;16.20;;;10.50;99.90;;;;;;5077741;28;20224;-73
2021/04/22 04:06:34;;;;;;;24.20;15.63;;;10.60;99.90;;;;;;5077003;28;20248;-73
2021/04/22 04:09:00;;;;;;;23.73;14.68;;;10.60;99.90;;;;;;5076223;28;20238;-72
2021/04/22 04:11:26;;;;;;;28.15;16.65;;;10.40;99.90;;;;;;5076983;28;20233;-72
2021/04/22 04:13:54;;;;;;;26.25;15.05;;;10.40;99.90;;;;;;5077316;28;20230;-72
2021/04/22 04:16:20;;;;;;;24.95;15.82;;;10.40;99.90;;;;;;5077464;28;20281;-72
2021/04/22 04:18:46;;;;;;;23.48;15.80;;;10.30;99.90;;;;;;5077296;28;20203;-73
2021/04/22 04:21:13;;;;;;;23.17;14.93;;;10.30;99.90;;;;;;5077067;28;20550;-73
2021/04/22 04:23:39;;;;;;;23.60;15.38;;;10.30;99.90;;;;;;5077492;28;20251;-73
2021/04/22 04:26:05;;;;;;;26.52;16.70;;;10.30;99.90;;;;;;5076690;28;20298;-73
2021/04/22 04:28:31;;;;;;;27.20;17.08;;;10.30;99.90;;;;;;5076805;28;20225;-72
2021/04/22 04:30:59;;;;;;;27.85;16.30;;;10.20;99.90;;;;;;5077154;28;20564;-73
2021/04/22 04:33:25;;;;;;;23.98;15.90;;;10.10;99.90;;;;;;5076070;28;20313;-73
2021/04/22 04:35:51;;;;;;;26.50;15.77;;;10.00;99.90;;;;;;5076271;28;20297;-73
2021/04/22 04:38:18;;;;;;;24.50;16.30;;;10.00;99.90;;;;;;5076394;28;20610;-73
2021/04/22 04:40:44;;;;;;;26.48;16.90;;;10.00;99.90;;;;;;5075836;28;20301;-73
2021/04/22 04:43:11;;;;;;;26.65;17.23;;;9.90;99.90;;;;;;5075360;28;20685;-72
2021/04/22 04:45:37;;;;;;;28.65;16.83;;;9.80;99.90;;;;;;5075140;28;20703;-72
2021/04/22 04:48:05;;;;;;;26.00;17.17;;;9.70;99.90;;;;;;5075093;28;20242;-73
2021/04/22 04:50:32;;;;;;;28.25;17.65;;;9.70;99.90;;;;;;5075843;28;20322;-73
2021/04/22 04:52:58;;;;;;;24.58;15.75;;;9.80;99.90;;;;;;5075800;28;20602;-73
2021/04/22 04:55:25;;;;;;;28.55;15.95;;;9.80;99.90;;;;;;5076176;28;20289;-73
2021/04/22 04:57:51;;;;;;;30.30;16.98;;;9.80;99.90;;;;;;5075564;28;20214;-72
2021/04/22 05:00:18;;;;;;;27.25;16.77;;;9.70;99.90;;;;;;5076448;28;20202;-72
2021/04/22 05:02:44;;;;;;;26.60;16.42;;;9.80;99.90;;;;;;5076554;28;20309;-72
2021/04/22 05:05:13;;;;;;;27.60;16.45;;;9.80;99.90;;;;;;5076707;28;20203;-73
2021/04/22 05:07:39;;;;;;;28.60;15.95;;;9.90;99.90;;;;;;5075920;28;20209;-73
2021/04/22 05:10:08;;;;;;;24.92;17.10;;;9.90;99.90;;;;;;5075665;28;20298;-73
2021/04/22 05:12:35;;;;;;;27.27;15.63;;;9.80;99.90;;;;;;5075400;28;20229;-73
2021/04/22 05:15:01;;;;;;;30.13;17.05;;;9.80;99.90;;;;;;5076716;28;20765;-74
2021/04/22 05:17:27;;;;;;;25.48;16.08;;;9.90;99.90;;;;;;5075903;28;20284;-73
2021/04/22 05:19:54;;;;;;;23.63;16.38;;;10.10;99.90;;;;;;5076298;28;20203;-73
2021/04/22 05:22:21;;;;;;;29.10;17.52;;;10.10;99.90;;;;;;5075301;28;20282;-72
2021/04/22 05:24:48;;;;;;;24.05;16.25;;;10.10;99.90;;;;;;5076302;28;20305;-73
2021/04/22 05:27:14;;;;;;;25.33;16.15;;;10.10;99.90;;;;;;5075555;28;20670;-72
2021/04/22 05:29:41;;;;;;;26.60;17.38;;;10.00;99.90;;;;;;5076338;28;20646;-73
2021/04/22 05:32:08;;;;;;;26.45;16.38;;;10.10;99.90;;;;;;5075288;28;20227;-73
2021/04/22 05:34:35;;;;;;;31.13;16.70;;;10.00;99.90;;;;;;5075246;28;20234;-73
2021/04/22 05:37:01;;;;;;;27.30;16.17;;;10.10;99.90;;;;;;5074938;28;20206;-73
2021/04/22 05:39:28;;;;;;;24.50;16.52;;;10.40;99.90;;;;;;5076290;28;20297;-72
2021/04/22 05:41:56;;;;;;;27.85;17.40;;;10.40;99.90;;;;;;5076497;28;20306;-73
2021/04/22 05:44:22;;;;;;;28.10;17.45;;;10.40;99.90;;;;;;5076705;28;20230;-73
2021/04/22 05:46:49;;;;;;;26.15;16.42;;;10.40;99.90;;;;;;5075339;28;20209;-73
2021/04/22 05:49:15;;;;;;;25.33;15.90;;;10.30;99.90;;;;;;5075974;28;20224;-73
2021/04/22 05:51:42;;;;;;;28.33;16.55;;;10.40;99.90;;;;;;5075218;28;20313;-73
2021/04/22 05:54:10;;;;;;;23.90;15.60;;;10.20;99.90;;;;;;5076412;28;20206;-73
2021/04/22 05:56:37;;;;;;;24.83;15.82;;;10.30;99.90;;;;;;5075375;28;20214;-74
2021/04/22 05:59:04;;;;;;;26.45;15.93;;;10.40;99.90;;;;;;5075749;28;20199;-73
2021/04/22 06:01:31;;;;;;;26.85;16.05;;;10.50;99.90;;;;;;5075128;28;20282;-73
2021/04/22 06:03:57;;;;;;;23.58;16.20;;;10.40;99.90;;;;;;5074130;28;20238;-73
2021/04/22 06:06:23;;;;;;;24.58;15.15;;;10.40;99.90;;;;;;5074081;28;20669;-72
2021/04/22 06:08:50;;;;;;;24.30;16.13;;;10.50;99.90;;;;;;5074931;28;20294;-73
2021/04/22 06:11:16;;;;;;;22.50;14.70;;;10.70;99.90;;;;;;5074606;28;20225;-73
2021/04/22 06:13:44;;;;;;;27.10;15.15;;;10.70;99.90;;;;;;5074942;28;20332;-73
2021/04/22 06:16:10;;;;;;;29.40;16.60;;;10.70;99.90;;;;;;5073703;28;20205;-72
2021/04/22 06:18:36;;;;;;;30.30;16.23;;;10.20;99.90;;;;;;5073827;28;20621;-72
2021/04/22 06:21:03;;;;;;;27.20;15.40;;;10.10;99.90;;;;;;5073905;28;20240;-73
2021/04/22 06:23:29;;;;;;;26.52;16.40;;;10.10;99.90;;;;;;5074167;28;20309;-73
2021/04/22 06:25:56;;;;;;;25.15;15.43;;;10.00;99.90;;;;;;5073651;28;20348;-73
2021/04/22 06:28:23;;;;;;;24.33;15.40;;;9.90;99.90;;;;;;5074153;28;20238;-73
2021/04/22 06:30:50;;;;;;;26.75;15.95;;;10.10;99.90;;;;;;5074118;28;20219;-72
2021/04/22 06:33:17;;;;;;;26.00;15.73;;;10.20;99.90;;;;;;5075038;28;20253;-72
2021/04/22 06:35:44;;;;;;;25.00;15.77;;;10.20;99.90;;;;;;5073774;28;20210;-73
2021/04/22 06:38:10;;;;;;;26.30;15.23;;;10.10;99.90;;;;;;5073981;28;20206;-72
2021/04/22 06:40:37;;;;;;;28.70;17.00;;;10.00;99.90;;;;;;5073034;28;20199;-72
2021/04/22 06:43:04;;;;;;;25.73;15.40;;;9.80;99.90;;;;;;5073974;28;20233;-72
2021/04/22 06:45:30;;;;;;;24.55;14.82;;;10.00;99.90;;;;;;5073903;28;20289;-73
2021/04/22 06:47:58;;;;;;;25.27;14.68;;;10.00;99.90;;;;;;5073840;28;20290;-72
2021/04/22 06:50:24;;;;;;;27.98;14.00;;;10.00;99.90;;;;;;5073606;28;20289;-73
2021/04/22 06:52:52;;;;;;;24.23;14.98;;;10.00;99.90;;;;;;5074811;28;20227;-72
2021/04/22 06:55:24;;;;;;;24.23;14.93;;;10.20;99.90;;;;;;5073996;28;20726;-74
2021/04/22 06:57:51;;;;;;;23.33;14.27;;;10.50;99.90;;;;;;5073451;28;20242;-73
2021/04/22 07:00:20;;;;;;;21.85;13.95;;;10.60;99.90;;;;;;5073472;28;20285;-72
2021/04/22 07:02:47;;;;;;;22.27;14.20;;;10.60;99.90;;;;;;5073428;28;20254;-72
2021/04/22 07:05:15;;;;;;;27.40;14.60;;;10.40;99.90;;;;;;5073498;28;20366;-75
2021/04/22 07:07:42;;;;;;;25.67;14.52;;;10.30;99.90;;;;;;5076541;28;20663;-74
2021/04/22 07:10:10;;;;;;;23.48;14.30;;;10.40;99.90;;;;;;5084317;28;20240;-74
2021/04/22 07:12:37;;;;;;;20.80;14.27;;;10.50;99.90;;;;;;5092630;28;20309;-73
2021/04/22 07:15:04;;;;;;;23.27;13.68;;;10.40;99.90;;;;;;5092739;28;20206;-74
2021/04/22 07:17:31;;;;;;;19.80;13.15;;;10.20;99.90;;;;;;5094538;28;20248;-73
2021/04/22 07:19:57;;;;;;;28.40;14.48;;;10.10;99.90;;;;;;5096478;28;20623;-74
2021/04/22 07:22:25;;;;;;;23.60;14.88;;;10.10;99.90;;;;;;5097063;28;20267;-73
2021/04/22 07:24:54;;;;;;;19.95;12.98;;;10.40;99.90;;;;;;5097217;28;20302;-74
2021/04/22 07:27:20;;;;;;;22.88;13.18;;;10.40;99.90;;;;;;5097830;28;20208;-74
2021/04/22 07:29:47;;;;;;;23.73;13.68;;;10.50;99.90;;;;;;5096277;28;20297;-74
2021/04/22 07:32:15;;;;;;;18.80;12.73;;;10.60;99.90;;;;;;5096395;28;20744;-74
2021/04/22 07:34:41;;;;;;;25.05;13.02;;;10.70;99.90;;;;;;5095628;28;20634;-74
2021/04/22 07:37:08;;;;;;;20.70;13.30;;;10.80;99.90;;;;;;5095703;28;20274;-76
2021/04/22 07:39:35;;;;;;;17.63;11.30;;;11.10;99.90;;;;;;5095028;28;20206;-76
2021/04/22 07:42:02;;;;;;;19.95;12.75;;;11.20;99.90;;;;;;5094860;28;20351;-76
2021/04/22 07:44:28;;;;;;;19.98;12.68;;;11.20;99.90;;;;;;5094861;28;20332;-76
2021/04/22 07:46:55;;;;;;;19.40;12.93;;;11.30;99.90;;;;;;5095293;28;20202;-77
2021/04/22 07:49:21;;;;;;;19.95;13.13;;;11.20;99.90;;;;;;5090925;28;20281;-75
2021/04/22 07:51:47;;;;;;;21.48;13.13;;;11.20;99.90;;;;;;5093832;28;20230;-75
2021/04/22 07:54:14;;;;;;;20.77;13.05;;;10.90;99.90;;;;;;5095037;28;20270;-75
2021/04/22 07:56:41;;;;;;;23.52;12.52;;;10.70;99.90;;;;;;5094807;28;20631;-77
2021/04/22 07:59:07;;;;;;;25.30;12.18;;;10.80;99.90;;;;;;5094959;28;20574;-76
2021/04/22 08:01:34;;;;;;;20.33;12.90;;;11.00;99.90;;;;;;5095132;28;20673;-77
2021/04/22 08:04:00;;;;;;;20.27;13.07;;;10.80;99.90;;;;;;5094976;28;20210;-75
2021/04/22 08:06:26;;;;;;;20.77;12.43;;;11.10;99.90;;;;;;5094821;28;20229;-76
2021/04/22 08:08:53;;;;;;;21.13;11.93;;;11.10;99.90;;;;;;5094756;28;20237;-76
2021/04/22 08:11:19;;;;;;;24.15;13.63;;;11.40;99.90;;;;;;5094362;28;20306;-77
2021/04/22 08:13:46;;;;;;;18.00;12.10;;;11.30;99.90;;;;;;5094634;28;20238;-75
2021/04/22 08:16:13;;;;;;;17.88;11.40;;;11.50;99.90;;;;;;5095442;28;20288;-72
2021/04/22 08:18:39;;;;;;;21.77;12.68;;;11.80;99.90;;;;;;5095892;28;20234;-73
2021/04/22 08:21:06;;;;;;;21.77;11.93;;;11.80;99.90;;;;;;5095856;28;20281;-72
2021/04/22 08:23:33;;;;;;;18.20;11.60;;;11.80;99.90;;;;;;5095975;28;20649;-72
2021/04/22 08:26:02;;;;;;;21.77;11.80;;;11.60;99.90;;;;;;5095582;28;20364;-72
2021/04/22 08:28:31;;;;;;;20.05;11.80;;;11.40;99.90;;;;;;5095234;28;20198;-72
2021/04/22 08:31:01;;;;;;;17.67;10.85;;;11.30;99.90;;;;;;5095963;28;20217;-72
2021/04/22 08:33:31;;;;;;;20.90;11.68;;;11.50;99.90;;;;;;5095669;28;20360;-72
2021/04/22 08:35:58;;;;;;;14.65;11.05;;;11.80;99.90;;;;;;5095309;28;20241;-72
2021/04/22 08:38:25;;;;;;;20.75;11.18;;;12.00;99.90;;;;;;5095672;28;20202;-72
2021/04/22 08:40:53;;;;;;;16.25;10.98;;;12.20;99.90;;;;;;5095349;28;20252;-72
2021/04/22 08:43:20;;;;;;;15.38;10.38;;;12.40;99.90;;;;;;5095145;28;20260;-72
2021/04/22 08:45:47;;;;;;;16.70;10.00;;;12.20;99.10;;;;;;5095033;28;20659;-72
2021/04/22 08:48:14;;;;;;;18.77;10.60;;;12.20;99.90;;;;;;5095326;28;20259;-72
2021/04/22 08:50:47;;;;;;;18.52;10.50;;;12.60;99.00;;;;;;5095328;28;20313;-72
2021/04/22 08:53:16;;;;;;;14.65;10.10;;;12.30;98.50;;;;;;5095833;28;20555;-72
2021/04/22 08:55:44;;;;;;;16.83;9.68;;;11.90;99.60;;;;;;5095051;28;20624;-73
2021/04/22 08:58:10;;;;;;;14.80;9.27;;;12.40;99.60;;;;;;5094901;28;20309;-72
2021/04/22 09:00:41;;;;;;;14.32;8.85;;;12.90;98.80;;;;;;5094926;28;20265;-72
2021/04/22 09:03:08;;;;;;;11.48;8.60;;;13.40;96.70;;;;;;5095172;28;20264;-72
2021/04/22 09:05:35;;;;;;;13.35;9.10;;;13.60;96.30;;;;;;5094684;28;20284;-72
2021/04/22 09:08:01;;;;;;;17.98;9.70;;;13.50;94.20;;;;;;5095355;28;20294;-72
2021/04/22 09:10:28;;;;;;;14.93;9.80;;;13.20;95.00;;;;;;5095081;28;20293;-72
2021/04/22 09:13:00;;;;;;;14.65;9.68;;;13.20;93.90;;;;;;5094842;28;20222;-72
2021/04/22 09:15:28;;;;;;;17.17;9.75;;;14.00;94.20;;;;;;5094695;28;20354;-73
2021/04/22 09:18:00;;;;;;;15.90;9.30;;;15.00;92.20;;;;;;5094372;28;20202;-72
2021/04/22 09:20:29;;;;;;;15.20;10.32;;;15.00;90.30;;;;;;5094997;28;20203;-72
2021/04/22 09:22:57;;;;;;;13.65;9.13;;;15.70;88.70;;;;;;5094942;28;20281;-72
2021/04/22 09:25:25;;;;;;;14.43;9.68;;;15.80;87.60;;;;;;5094364;28;20299;-73
2021/04/22 09:27:56;;;;;;;13.45;9.35;;;16.10;83.80;;;;;;5094666;28;20277;-72
2021/04/22 09:30:32;;;;;;;15.25;9.98;;;16.10;81.20;;;;;;5094587;28;20220;-72
2021/04/22 09:32:58;;;;;;;11.05;8.10;;;16.70;75.90;;;;;;5094046;28;20266;-73
2021/04/22 09:35:26;;;;;;;11.18;8.75;;;16.80;77.30;;;;;;5095010;28;20264;-73
2021/04/22 09:37:54;;;;;;;13.80;9.10;;;18.20;76.00;;;;;;5094179;28;20201;-73
2021/04/22 09:40:26;;;;;;;11.97;8.23;;;18.60;69.20;;;;;;5093718;28;20218;-73
2021/04/22 09:42:55;;;;;;;9.60;7.93;;;20.30;64.70;;;;;;5094293;28;20464;-72
2021/04/22 09:45:24;;;;;;;13.00;7.83;;;21.20;61.00;;;;;;5094328;28;20454;-72
2021/04/22 09:47:51;;;;;;;10.30;8.77;;;20.10;57.90;;;;;;5094492;28;20479;-73
2021/04/22 09:50:21;;;;;;;9.53;7.47;;;19.70;59.20;;;;;;5093926;28;20513;-73
2021/04/22 09:52:52;;;;;;;8.20;6.87;;;19.90;57.10;;;;;;5093907;28;20843;-73
2021/04/22 09:55:20;;;;;;;10.60;7.40;;;19.70;56.90;;;;;;5094230;28;20503;-73
2021/04/22 09:57:49;;;;;;;8.75;6.82;;;18.60;57.70;;;;;;5093629;28;20218;-73
2021/04/22 10:00:22;;;;;;;10.68;6.85;;;18.70;57.50;;;;;;5094489;28;20237;-73
2021/04/22 10:02:52;;;;;;;8.75;6.65;;;18.90;56.10;;;;;;5094290;28;20304;-73
2021/04/22 10:05:21;;;;;;;9.50;7.03;;;20.00;56.10;;;;;;5094269;28;20203;-73
2021/04/22 10:07:48;;;;;;;7.33;5.77;;;21.20;53.20;;;;;;5094301;28;20450;-73
2021/04/22 10:10:18;;;;;;;7.17;5.77;;;22.10;51.00;;;;;;5094561;28;20568;-73
2021/04/22 10:12:45;;;;;;;10.53;7.23;;;21.50;47.40;;;;;;5094659;28;20489;-73
2021/04/22 10:15:15;;;;;;;8.20;6.17;;;20.90;52.10;;;;;;5094368;28;20451;-73
2021/04/22 10:17:41;;;;;;;7.03;5.27;;;20.80;50.50;;;;;;5093404;28;20528;-73
2021/04/22 10:20:10;;;;;;;6.90;5.67;;;20.00;48.70;;;;;;5093778;28;20475;-73
2021/04/22 10:22:38;;;;;;;8.50;5.10;;;21.00;47.50;;;;;;5093804;28;20465;-73
2021/04/22 10:25:07;;;;;;;9.18;5.35;;;19.00;47.70;;;;;;5094001;28;20285;-73
2021/04/22 10:27:34;;;;;;;10.07;4.65;;;17.50;49.20;;;;;;5093915;28;20212;-73
2021/04/22 10:30:00;;;;;;;8.18;4.90;;;17.00;50.00;;;;;;5093711;28;20201;-73
2021/04/22 10:32:28;;;;;;;6.55;4.43;;;17.00;49.80;;;;;;5093784;28;20229;-73
2021/04/22 10:34:55;;;;;;;8.35;4.60;;;17.20;49.60;;;;;;5093853;28;20267;-73
2021/04/22 10:37:23;;;;;;;5.32;4.18;;;17.80;49.60;;;;;;5093712;28;20198;-73
2021/04/22 10:39:53;;;;;;;6.75;4.63;;;17.50;46.70;;;;;;5093995;28;20269;-73
2021/04/22 10:42:20;;;;;;;5.30;4.20;;;16.80;49.90;;;;;;5093681;28;20325;-73
2021/04/22 10:44:49;;;;;;;6.30;4.13;;;16.60;47.60;;;;;;5093256;28;20201;-73
2021/04/22 10:47:16;;;;;;;8.15;5.10;;;17.10;51.90;;;;;;5093509;28;20342;-73
2021/04/22 10:49:45;;;;;;;5.20;3.70;;;17.30;47.50;;;;;;5093770;28;20296;-73
2021/04/22 10:52:12;;;;;;;7.70;3.97;;;17.40;47.60;;;;;;5096404;28;20321;-73
2021/04/22 10:54:40;;;;;;;5.00;3.78;;;18.00;43.90;;;;;;5098072;28;20300;-73
2021/04/22 10:57:09;;;;;;;4.50;3.35;;;17.60;42.70;;;;;;5097079;28;20214;-73
2021/04/22 10:59:36;;;;;;;3.97;3.40;;;18.20;44.60;;;;;;5097198;28;20332;-73
2021/04/22 11:02:13;;;;;;;3.90;3.53;;;19.60;43.10;;;;;;5097180;28;20280;-73
2021/04/22 11:04:39;;;;;;;4.90;3.70;;;20.30;41.30;;;;;;5096938;28;20492;-73
2021/04/22 11:07:20;;;;;;;4.13;3.37;;;21.60;38.80;;;;;;5097089;28;20450;-73
2021/04/22 11:09:48;;;;;;;4.07;3.13;;;19.90;37.20;;;;;;5097300;28;20839;-73
2021/04/22 11:12:23;;;;;;;5.20;3.33;;;20.20;39.40;;;;;;5096682;28;21020;-73
2021/04/22 11:14:52;;;;;;;3.85;2.95;;;19.80;40.10;;;;;;5097369;28;20524;-73
2021/04/22 11:17:19;;;;;;;3.40;2.50;;;18.80;38.40;;;;;;5097419;28;20209;-73
2021/04/22 11:19:48;;;;;;;3.63;2.78;;;18.50;37.80;;;;;;5097367;28;20293;-73
2021/04/22 11:22:20;;;;;;;2.65;2.35;;;16.90;36.70;;;;;;5097053;28;20214;-73
2021/04/22 11:24:54;;;;;;;3.17;2.40;;;16.70;37.90;;;;;;5097084;28;20612;-72
2021/04/22 11:27:22;;;;;;;4.40;3.25;;;16.30;40.10;;;;;;5096867;28;20299;-72
2021/04/22 11:29:51;;;;;;;5.60;3.10;;;16.40;38.50;;;;;;5097174;28;20211;-72
2021/04/22 11:32:24;;;;;;;5.00;2.55;;;16.10;40.50;;;;;;5096932;28;20705;-73
2021/04/22 11:34:52;;;;;;;4.15;2.50;;;16.20;42.40;;;;;;5096774;28;20295;-73
2021/04/22 11:37:22;;;;;;;7.10;2.67;;;16.30;39.60;;;;;;5096626;28;20587;-72
2021/04/22 11:39:48;;;;;;;4.55;3.00;;;16.00;40.20;;;;;;5096840;28;20598;-72
2021/04/22 11:42:15;;;;;;;3.75;2.35;;;15.70;40.50;;;;;;5096850;28;20620;-72
2021/04/22 11:44:43;;;;;;;4.20;2.70;;;15.20;41.30;;;;;;5097084;28;20294;-72
2021/04/22 11:47:19;;;;;;;2.97;2.70;;;15.10;41.30;;;;;;5096095;28;20293;-72
2021/04/22 11:49:46;;;;;;;5.82;3.00;;;15.10;42.20;;;;;;5096370;28;20288;-72
2021/04/22 11:52:21;;;;;;;2.63;2.40;;;15.00;43.80;;;;;;5096119;28;20234;-72
2021/04/22 11:54:47;;;;;;;3.78;3.05;;;15.20;45.20;;;;;;5096525;28;20218;-72
2021/04/22 11:57:15;;;;;;;4.45;2.60;;;15.40;42.10;;;;;;5095774;28;20211;-72
2021/04/22 11:59:41;;;;;;;4.03;3.15;;;15.70;43.10;;;;;;5096023;28;20203;-72
2021/04/22 12:02:10;;;;;;;2.80;2.55;;;16.00;43.70;;;;;;5095787;28;20310;-72
2021/04/22 12:04:42;;;;;;;3.30;2.42;;;15.90;42.30;;;;;;5096113;28;20605;-72
2021/04/22 12:07:12;;;;;;;5.38;2.63;;;15.80;40.30;;;;;;5096259;28;20243;-72
2021/04/22 12:09:41;;;;;;;6.65;2.65;;;16.10;42.50;;;;;;5096315;28;20205;-72
2021/04/22 12:12:13;;;;;;;5.95;3.03;;;16.50;40.30;;;;;;5095666;28;20319;-72
2021/04/22 12:14:40;;;;;;;4.25;2.60;;;16.10;40.70;;;;;;5096080;28;20288;-72
2021/04/22 12:17:07;;;;;;;3.40;2.78;;;16.30;41.20;;;;;;5095920;28;20554;-72
2021/04/22 12:19:33;;;;;;;4.15;3.00;;;16.50;41.00;;;;;;5096128;28;20298;-72
2021/04/22 12:22:02;;;;;;;4.28;2.78;;;16.70;41.40;;;;;;5096140;28;20252;-72
2021/04/22 12:24:29;;;;;;;3.88;2.67;;;16.90;42.20;;;;;;5095720;28;20262;-72
2021/04/22 12:26:57;;;;;;;4.22;2.80;;;16.90;41.30;;;;;;5095621;28;20300;-73
2021/04/22 12:29:24;;;;;;;3.97;2.75;;;16.50;42.30;;;;;;5095404;28;20666;-72
2021/04/22 12:31:52;;;;;;;3.50;2.58;;;16.40;41.30;;;;;;5095543;28;20309;-72
2021/04/22 12:34:20;;;;;;;4.80;3.47;;;16.10;41.20;;;;;;5095799;28;20211;-72